createdAt,value
2023-12-20T00:00:24.722Z,13.02
2023-12-20T00:03:41.386Z,13.07
2023-12-20T00:06:32.233Z,13.12
2023-12-20T00:09:20.475Z,13.12
2023-12-20T00:12:08.874Z,13.06
2023-12-20T00:14:56.501Z,13.04
2023-12-20T00:17:44.726Z,12.90
2023-12-20T00:20:32.805Z,12.83
2023-12-20T00:23:21.103Z,12.53
2023-12-20T00:26:08.889Z,12.34
2023-12-20T00:28:56.800Z,12.19
2023-12-20T00:31:44.667Z,12.17
2023-12-20T00:34:32.630Z,12.22
2023-12-20T00:37:20.895Z,12.26
2023-12-20T00:40:09.638Z,12.19
2023-12-20T00:42:57.489Z,12.04
2023-12-20T00:45:45.526Z,12.05
2023-12-20T00:48:33.250Z,12.07
2023-12-20T00:51:21.408Z,12.20
2023-12-20T00:54:08.934Z,12.29
2023-12-20T00:56:56.935Z,12.34
2023-12-20T00:59:44.611Z,12.31
2023-12-20T01:02:32.154Z,12.31
2023-12-20T01:05:20.706Z,11.96
2023-12-20T01:08:08.444Z,10.67
2023-12-20T01:10:57.330Z,10.14
2023-12-20T01:13:45.176Z,10.72
2023-12-20T01:16:33.626Z,10.83
2023-12-20T01:19:21.557Z,10.94
2023-12-20T01:22:09.535Z,11.08
2023-12-20T01:24:56.951Z,11.10
2023-12-20T01:27:44.662Z,11.11
2023-12-20T01:30:33.939Z,10.87
2023-12-20T01:33:21.690Z,9.62
2023-12-20T01:36:10.053Z,8.58
2023-12-20T01:38:57.731Z,8.53
2023-12-20T01:41:47.089Z,9.25
2023-12-20T01:44:34.781Z,9.78
2023-12-20T01:47:23.471Z,10.00
2023-12-20T01:50:11.436Z,10.10
2023-12-20T01:53:02.753Z,10.16
2023-12-20T01:55:51.948Z,10.29
2023-12-20T01:58:45.272Z,10.44
2023-12-20T02:01:33.678Z,10.51
2023-12-20T02:04:21.491Z,10.59
2023-12-20T02:07:10.401Z,10.72
2023-12-20T02:09:58.359Z,10.77
2023-12-20T02:12:46.367Z,10.81
2023-12-20T02:15:34.295Z,10.39
2023-12-20T02:18:22.656Z,9.05
2023-12-20T02:21:10.993Z,8.99
2023-12-20T02:23:58.637Z,9.57
2023-12-20T02:26:47.398Z,9.96
2023-12-20T02:29:36.516Z,10.26
2023-12-20T02:32:28.805Z,10.37
2023-12-20T02:35:16.694Z,10.47
2023-12-20T02:38:04.419Z,10.66
2023-12-20T02:40:52.148Z,10.81
2023-12-20T02:43:40.037Z,10.87
2023-12-20T02:46:27.995Z,10.05
2023-12-20T02:49:15.891Z,8.87
2023-12-20T02:52:04.277Z,8.00
2023-12-20T02:54:52.523Z,7.71
2023-12-20T02:57:43.577Z,8.72
2023-12-20T03:00:31.432Z,9.49
2023-12-20T03:03:19.452Z,10.00
2023-12-20T03:06:07.330Z,10.31
2023-12-20T03:08:55.215Z,10.49
2023-12-20T03:11:42.905Z,10.63
2023-12-20T03:14:30.902Z,10.78
2023-12-20T03:17:20.008Z,10.89
2023-12-20T03:20:09.099Z,10.70
2023-12-20T03:22:57.090Z,9.53
2023-12-20T03:25:44.466Z,8.77
2023-12-20T03:28:32.173Z,9.28
2023-12-20T03:31:21.058Z,9.89
2023-12-20T03:34:08.798Z,10.16
2023-12-20T03:36:56.580Z,10.45
2023-12-20T03:39:44.607Z,10.61
2023-12-20T03:42:32.668Z,10.66
2023-12-20T03:45:20.299Z,10.33
2023-12-20T03:48:08.530Z,9.09
2023-12-20T03:50:56.639Z,8.05
2023-12-20T03:53:44.395Z,8.16
2023-12-20T03:56:32.155Z,9.02
2023-12-20T03:59:20.214Z,9.50
2023-12-20T04:02:08.068Z,9.70
2023-12-20T04:04:56.008Z,9.96
2023-12-20T04:07:43.631Z,10.02
2023-12-20T04:10:31.406Z,10.03
2023-12-20T04:13:19.677Z,10.22
2023-12-20T04:16:07.653Z,10.04
2023-12-20T04:18:55.532Z,8.90
2023-12-20T04:21:43.184Z,7.84
2023-12-20T04:24:30.698Z,7.38
2023-12-20T04:27:18.251Z,8.14
2023-12-20T04:30:06.843Z,8.75
2023-12-20T04:32:54.896Z,9.18
2023-12-20T04:35:43.980Z,9.53
2023-12-20T04:38:31.928Z,9.77
2023-12-20T04:41:20.265Z,9.86
2023-12-20T04:44:08.514Z,9.97
2023-12-20T04:46:57.761Z,10.02
2023-12-20T04:49:45.453Z,9.96
2023-12-20T04:52:33.411Z,9.65
2023-12-20T04:55:21.709Z,8.43
2023-12-20T04:58:09.573Z,7.52
2023-12-20T05:00:57.734Z,7.99
2023-12-20T05:03:45.477Z,8.65
2023-12-20T05:06:33.246Z,9.13
2023-12-20T05:09:21.467Z,9.35
2023-12-20T05:12:09.428Z,9.50
2023-12-20T05:14:57.758Z,9.56
2023-12-20T05:17:46.047Z,9.65
2023-12-20T05:20:33.741Z,9.73
2023-12-20T05:23:21.749Z,9.73
2023-12-20T05:26:09.423Z,9.87
2023-12-20T05:28:57.152Z,9.47
2023-12-20T05:31:44.834Z,8.27
2023-12-20T05:34:33.130Z,7.49
2023-12-20T05:37:21.095Z,8.06
2023-12-20T05:40:12.801Z,8.67
2023-12-20T05:43:00.762Z,9.13
2023-12-20T05:45:48.648Z,9.45
2023-12-20T05:48:36.783Z,9.72
2023-12-20T05:51:24.791Z,9.50
2023-12-20T05:54:12.557Z,8.34
2023-12-20T05:57:01.915Z,7.54
2023-12-20T05:59:49.607Z,8.05
2023-12-20T06:02:40.279Z,8.65
2023-12-20T06:05:28.236Z,9.17
2023-12-20T06:08:16.117Z,9.45
2023-12-20T06:11:03.985Z,9.56
2023-12-20T06:13:54.308Z,9.55
2023-12-20T06:16:42.143Z,8.87
2023-12-20T06:19:29.918Z,7.62
2023-12-20T06:22:17.773Z,7.14
2023-12-20T06:25:06.664Z,7.89
2023-12-20T06:27:54.699Z,8.52
2023-12-20T06:30:42.552Z,8.84
2023-12-20T06:33:32.228Z,9.02
2023-12-20T06:36:19.800Z,9.19
2023-12-20T06:39:07.849Z,9.45
2023-12-20T06:41:55.801Z,9.41
2023-12-20T06:44:43.401Z,8.43
2023-12-20T06:47:31.245Z,7.51
2023-12-20T06:50:18.793Z,7.98
2023-12-20T06:53:08.374Z,8.46
2023-12-20T06:55:57.589Z,8.54
2023-12-20T06:58:45.852Z,8.81
2023-12-20T07:01:33.546Z,9.12
2023-12-20T07:04:23.407Z,9.27
2023-12-20T07:07:11.652Z,9.30
2023-12-20T07:09:59.723Z,8.91
2023-12-20T07:12:47.782Z,7.66
2023-12-20T07:15:37.032Z,7.49
2023-12-20T07:18:25.333Z,8.32
2023-12-20T07:21:13.353Z,8.78
2023-12-20T07:24:01.116Z,8.83
2023-12-20T07:26:48.988Z,9.06
2023-12-20T07:29:37.115Z,9.18
2023-12-20T07:32:25.097Z,8.70
2023-12-20T07:35:13.210Z,7.34
2023-12-20T07:38:01.325Z,6.88
2023-12-20T07:40:49.212Z,7.57
2023-12-20T07:43:36.838Z,8.07
2023-12-20T07:46:24.933Z,8.33
2023-12-20T07:49:15.607Z,8.51
2023-12-20T07:52:03.732Z,8.64
2023-12-20T07:54:51.663Z,8.76
2023-12-20T07:57:39.405Z,8.66
2023-12-20T08:00:28.102Z,8.62
2023-12-20T08:03:15.854Z,8.71
2023-12-20T08:06:04.633Z,8.69
2023-12-20T08:08:58.702Z,8.64
2023-12-20T08:11:50.678Z,7.45
2023-12-20T08:14:41.429Z,7.42
2023-12-20T08:17:32.304Z,7.96
2023-12-20T08:20:23.436Z,8.30
2023-12-20T08:23:18.136Z,8.49
2023-12-20T08:26:07.853Z,8.79
2023-12-20T08:28:56.785Z,9.13
2023-12-20T08:31:46.166Z,9.97
2023-12-20T08:34:34.058Z,11.19
2023-12-20T08:37:21.988Z,12.36
2023-12-20T08:40:10.341Z,13.38
2023-12-20T08:42:58.056Z,14.06
2023-12-20T08:45:46.112Z,13.98
2023-12-20T08:48:34.125Z,13.85
2023-12-20T08:51:23.981Z,13.92
2023-12-20T08:54:14.215Z,14.18
2023-12-20T08:57:01.940Z,14.11
2023-12-20T08:59:49.905Z,13.34
2023-12-20T09:02:38.968Z,12.39
2023-12-20T09:05:27.730Z,11.31
2023-12-20T09:08:15.408Z,10.30
2023-12-20T09:11:03.157Z,9.45
2023-12-20T09:13:52.370Z,8.63
2023-12-20T09:16:40.209Z,8.02
2023-12-20T09:19:27.922Z,8.47
2023-12-20T09:22:16.107Z,9.48
2023-12-20T09:25:04.328Z,9.39
2023-12-20T09:27:53.782Z,8.62
2023-12-20T09:30:41.941Z,8.24
2023-12-20T09:33:29.946Z,9.02
2023-12-20T09:36:37.318Z,10.47
2023-12-20T09:39:25.346Z,10.16
2023-12-20T09:42:18.468Z,9.16
2023-12-20T09:45:10.932Z,8.40
2023-12-20T09:47:59.945Z,8.16
2023-12-20T09:50:51.835Z,9.10
2023-12-20T09:53:43.310Z,9.71
2023-12-20T09:56:32.113Z,9.22
2023-12-20T09:59:20.094Z,8.61
2023-12-20T10:02:15.591Z,8.65
2023-12-20T10:05:05.387Z,9.63
2023-12-20T10:07:53.547Z,9.82
2023-12-20T10:10:45.670Z,8.98
2023-12-20T10:13:42.357Z,8.12
2023-12-20T10:16:31.465Z,8.37
2023-12-20T10:19:19.763Z,9.24
2023-12-20T10:22:07.776Z,9.02
2023-12-20T10:24:57.670Z,8.03
2023-12-20T10:27:45.644Z,7.49
2023-12-20T10:30:33.140Z,8.06
2023-12-20T10:33:33.714Z,8.81
2023-12-20T10:36:22.855Z,9.12
2023-12-20T10:39:12.701Z,8.34
2023-12-20T10:42:00.872Z,7.54
2023-12-20T10:44:48.748Z,7.98
2023-12-20T10:47:38.902Z,8.56
2023-12-20T10:50:30.333Z,9.00
2023-12-20T10:53:18.038Z,9.03
2023-12-20T10:56:09.368Z,8.25
2023-12-20T10:59:02.611Z,7.68
2023-12-20T11:01:52.127Z,8.45
2023-12-20T11:04:46.312Z,9.13
2023-12-20T11:07:51.960Z,9.68
2023-12-20T11:11:07.594Z,9.10
2023-12-20T11:14:03.328Z,7.86
2023-12-20T11:16:55.401Z,8.15
2023-12-20T11:19:58.950Z,8.86
2023-12-20T11:22:57.496Z,9.45
2023-12-20T11:25:52.805Z,9.40
2023-12-20T11:28:41.074Z,8.37
2023-12-20T11:31:29.065Z,8.41
2023-12-20T11:34:18.939Z,9.21
2023-12-20T11:37:08.590Z,9.86
2023-12-20T11:39:58.100Z,9.49
2023-12-20T11:42:51.002Z,8.51
2023-12-20T11:45:50.735Z,8.16
2023-12-20T11:48:45.456Z,8.98
2023-12-20T11:51:33.450Z,9.57
2023-12-20T11:54:21.342Z,9.90
2023-12-20T11:57:08.980Z,9.83
2023-12-20T11:59:57.292Z,8.93
2023-12-20T12:02:46.811Z,8.52
2023-12-20T12:05:37.411Z,9.22
2023-12-20T12:08:25.641Z,9.61
2023-12-20T12:11:13.338Z,9.77
2023-12-20T12:14:02.192Z,9.89
2023-12-20T12:16:51.678Z,10.05
2023-12-20T12:19:41.114Z,9.37
2023-12-20T12:22:29.192Z,8.35
2023-12-20T12:25:17.204Z,8.40
2023-12-20T12:28:05.459Z,9.08
2023-12-20T12:31:00.612Z,9.42
2023-12-20T12:33:48.954Z,9.68
2023-12-20T12:36:37.185Z,9.92
2023-12-20T12:39:28.410Z,9.84
2023-12-20T12:42:16.135Z,9.96
2023-12-20T12:45:04.675Z,9.91
2023-12-20T12:47:52.466Z,8.97
2023-12-20T12:50:39.966Z,8.29
2023-12-20T12:53:30.482Z,8.74
2023-12-20T12:56:18.273Z,9.12
2023-12-20T12:59:06.939Z,9.49
2023-12-20T13:01:55.028Z,9.54
2023-12-20T13:04:44.325Z,9.75
2023-12-20T13:07:32.510Z,9.55
2023-12-20T13:10:20.354Z,9.57
2023-12-20T13:13:08.826Z,9.76
2023-12-20T13:15:56.609Z,9.81
2023-12-20T13:18:44.710Z,9.84
2023-12-20T13:21:32.734Z,9.99
2023-12-20T13:24:20.612Z,9.93
2023-12-20T13:27:08.361Z,9.84
2023-12-20T13:29:55.783Z,9.91
2023-12-20T13:32:43.831Z,9.90
2023-12-20T13:35:32.220Z,9.93
2023-12-20T13:38:20.675Z,9.81
2023-12-20T13:41:08.388Z,9.89
2023-12-20T13:43:56.359Z,9.98
2023-12-20T13:46:44.560Z,9.19
2023-12-20T13:49:32.838Z,8.36
2023-12-20T13:52:20.582Z,8.81
2023-12-20T13:55:09.596Z,9.25
2023-12-20T13:57:59.084Z,9.40
2023-12-20T14:00:47.646Z,9.68
2023-12-20T14:03:35.658Z,9.85
2023-12-20T14:06:23.420Z,9.67
2023-12-20T14:09:15.207Z,8.48
2023-12-20T14:12:02.865Z,8.30
2023-12-20T14:14:50.734Z,9.08
2023-12-20T14:17:40.452Z,9.54
2023-12-20T14:20:28.145Z,9.64
2023-12-20T14:23:15.962Z,9.53
2023-12-20T14:26:04.780Z,9.51
2023-12-20T14:28:52.320Z,9.45
2023-12-20T14:31:41.438Z,9.60
2023-12-20T14:34:29.431Z,9.54
2023-12-20T14:37:18.325Z,8.53
2023-12-20T14:40:17.662Z,7.99
2023-12-20T14:43:05.571Z,8.74
2023-12-20T14:45:54.536Z,9.07
2023-12-20T14:48:42.832Z,9.33
2023-12-20T14:51:30.707Z,9.40
2023-12-20T14:54:18.181Z,9.52
2023-12-20T14:57:06.484Z,9.61
2023-12-20T14:59:54.126Z,9.73
2023-12-20T15:02:42.461Z,9.84
2023-12-20T15:05:30.583Z,9.78
2023-12-20T15:08:18.474Z,9.75
2023-12-20T15:11:06.466Z,9.84
2023-12-20T15:13:57.420Z,9.93
2023-12-20T15:16:45.244Z,9.10
2023-12-20T15:19:33.756Z,8.24
2023-12-20T15:22:21.690Z,8.71
2023-12-20T15:25:10.065Z,9.21
2023-12-20T15:27:58.228Z,9.23
2023-12-20T15:30:46.129Z,9.37
2023-12-20T15:33:34.122Z,9.51
2023-12-20T15:36:22.014Z,9.49
2023-12-20T15:39:09.947Z,9.47
2023-12-20T15:41:58.135Z,9.49
2023-12-20T15:44:45.822Z,9.48
2023-12-20T15:47:37.260Z,9.54
2023-12-20T15:50:25.869Z,9.58
2023-12-20T15:53:13.889Z,9.63
2023-12-20T15:56:02.622Z,9.67
2023-12-20T15:58:52.779Z,9.58
2023-12-20T16:01:40.879Z,9.04
2023-12-20T16:04:32.201Z,9.03
2023-12-20T16:07:20.792Z,9.11
2023-12-20T16:10:08.912Z,8.91
2023-12-20T16:12:56.999Z,8.81
2023-12-20T16:15:44.973Z,8.82
2023-12-20T16:18:34.036Z,8.76
2023-12-20T16:21:21.860Z,8.54
2023-12-20T16:24:09.888Z,8.52
2023-12-20T16:26:57.560Z,8.50
2023-12-20T16:29:45.342Z,8.47
2023-12-20T16:32:33.928Z,8.57
2023-12-20T16:35:21.749Z,8.49
2023-12-20T16:38:09.346Z,8.41
2023-12-20T16:40:57.157Z,8.45
2023-12-20T16:43:44.853Z,8.50
2023-12-20T16:46:33.144Z,8.39
2023-12-20T16:49:22.576Z,8.38
2023-12-20T16:52:10.471Z,8.62
2023-12-20T16:54:59.297Z,8.43
2023-12-20T16:57:47.447Z,8.37
2023-12-20T17:00:35.558Z,8.24
2023-12-20T17:03:25.916Z,8.35
2023-12-20T17:06:13.781Z,8.36
2023-12-20T17:09:01.807Z,8.32
2023-12-20T17:11:49.351Z,8.35
2023-12-20T17:14:37.480Z,8.47
2023-12-20T17:17:25.465Z,8.49
2023-12-20T17:20:13.390Z,8.58
2023-12-20T17:23:01.165Z,8.59
2023-12-20T17:25:48.836Z,8.74
2023-12-20T17:28:36.645Z,8.85
2023-12-20T17:31:24.965Z,8.89
2023-12-20T17:34:14.025Z,8.90
2023-12-20T17:37:02.026Z,8.81
2023-12-20T17:39:50.000Z,8.55
2023-12-20T17:42:37.839Z,8.59
2023-12-20T17:45:26.201Z,8.61
2023-12-20T17:48:14.413Z,8.64
2023-12-20T17:51:02.815Z,8.69
2023-12-20T17:53:51.263Z,8.49
2023-12-20T17:56:38.794Z,8.52
2023-12-20T17:59:26.653Z,8.47
2023-12-20T18:02:14.228Z,8.35
2023-12-20T18:05:02.208Z,8.30
2023-12-20T18:07:53.153Z,8.30
2023-12-20T18:10:40.805Z,8.13
2023-12-20T18:13:31.481Z,8.05
2023-12-20T18:16:19.602Z,8.10
2023-12-20T18:19:07.921Z,8.03
2023-12-20T18:21:56.342Z,7.88
2023-12-20T18:24:44.311Z,7.96
2023-12-20T18:27:32.397Z,7.85
2023-12-20T18:30:20.428Z,7.81
2023-12-20T18:33:08.149Z,7.75
2023-12-20T18:35:56.313Z,7.68
2023-12-20T18:38:46.683Z,7.62
2023-12-20T18:41:34.533Z,7.58
2023-12-20T18:44:22.205Z,7.54
2023-12-20T18:47:10.255Z,7.42
2023-12-20T18:49:58.327Z,7.36
2023-12-20T18:52:47.232Z,7.43
2023-12-20T18:55:35.118Z,7.49
2023-12-20T18:58:25.015Z,7.56
2023-12-20T19:01:12.969Z,7.77
2023-12-20T19:04:01.289Z,7.84
2023-12-20T19:06:50.633Z,7.91
2023-12-20T19:09:38.486Z,8.11
2023-12-20T19:12:26.207Z,8.07
2023-12-20T19:15:14.227Z,8.11
2023-12-20T19:18:01.979Z,8.11
2023-12-20T19:20:50.525Z,8.22
2023-12-20T19:23:38.424Z,8.23
2023-12-20T19:26:25.925Z,8.20
2023-12-20T19:29:13.801Z,8.14
2023-12-20T19:32:01.330Z,8.06
2023-12-20T19:34:49.114Z,7.94
2023-12-20T19:37:36.931Z,7.92
2023-12-20T19:40:24.705Z,7.87
2023-12-20T19:43:12.574Z,7.83
2023-12-20T19:46:00.586Z,7.96
2023-12-20T19:48:48.390Z,7.86
2023-12-20T19:51:37.164Z,7.74
2023-12-20T19:54:25.806Z,7.35
2023-12-20T19:57:15.698Z,7.48
2023-12-20T20:00:06.076Z,7.42
2023-12-20T20:02:59.881Z,7.59
2023-12-20T20:05:47.921Z,7.47
2023-12-20T20:08:36.247Z,7.68
2023-12-20T20:11:33.026Z,7.66
2023-12-20T20:14:28.267Z,7.71
2023-12-20T20:17:17.513Z,7.81
2023-12-20T20:20:07.580Z,7.84
2023-12-20T20:22:55.781Z,7.91
2023-12-20T20:25:43.891Z,8.06
2023-12-20T20:28:32.078Z,8.09
2023-12-20T20:31:20.142Z,8.13
2023-12-20T20:34:08.239Z,8.12
2023-12-20T20:36:56.745Z,8.14
2023-12-20T20:39:46.509Z,7.98
2023-12-20T20:42:35.817Z,7.97
2023-12-20T20:45:24.126Z,7.88
2023-12-20T20:48:21.401Z,7.71
2023-12-20T20:51:15.389Z,7.81
2023-12-20T20:54:11.907Z,7.99
2023-12-20T20:57:06.045Z,8.13
2023-12-20T20:59:53.806Z,8.20
2023-12-20T21:02:41.904Z,8.23
2023-12-20T21:05:30.645Z,8.06
2023-12-20T21:08:18.417Z,7.94
2023-12-20T21:11:06.483Z,7.93
2023-12-20T21:13:54.754Z,7.90
2023-12-20T21:16:42.777Z,7.84
2023-12-20T21:19:30.996Z,7.85
2023-12-20T21:22:18.666Z,7.80
2023-12-20T21:25:09.965Z,7.88
2023-12-20T21:27:57.797Z,7.71
2023-12-20T21:30:46.133Z,6.54
2023-12-20T21:33:34.386Z,6.21
2023-12-20T21:36:22.457Z,6.72
2023-12-20T21:39:11.297Z,7.13
2023-12-20T21:41:59.450Z,7.37
2023-12-20T21:44:47.206Z,7.46
2023-12-20T21:47:35.046Z,7.43
2023-12-20T21:50:23.364Z,7.50
2023-12-20T21:53:12.573Z,7.55
2023-12-20T21:56:00.296Z,7.36
2023-12-20T21:58:47.806Z,7.54
2023-12-20T22:01:41.368Z,7.57
2023-12-20T22:04:29.060Z,7.57
2023-12-20T22:07:17.447Z,7.57
2023-12-20T22:10:06.689Z,7.56
2023-12-20T22:12:54.830Z,7.72
2023-12-20T22:15:42.870Z,7.97
2023-12-20T22:18:30.875Z,8.10
2023-12-20T22:21:18.525Z,7.55
2023-12-20T22:24:06.810Z,6.35
2023-12-20T22:26:56.617Z,5.56
2023-12-20T22:29:44.233Z,6.01
2023-12-20T22:32:32.113Z,6.56
2023-12-20T22:35:20.677Z,6.91
2023-12-20T22:38:08.235Z,6.96
2023-12-20T22:40:55.985Z,6.93
2023-12-20T22:43:43.932Z,7.07
2023-12-20T22:46:31.810Z,7.12
2023-12-20T22:49:20.460Z,7.06
2023-12-20T22:52:08.142Z,7.00
2023-12-20T22:54:56.958Z,6.87
2023-12-20T22:57:44.982Z,6.81
2023-12-20T23:00:32.932Z,6.90
2023-12-20T23:03:26.244Z,6.82
2023-12-20T23:06:14.132Z,6.73
2023-12-20T23:09:01.698Z,6.69
2023-12-20T23:11:51.074Z,6.76
2023-12-20T23:14:39.314Z,6.78
2023-12-20T23:17:27.245Z,6.71
2023-12-20T23:20:15.051Z,6.77
2023-12-20T23:23:02.992Z,6.84
2023-12-20T23:25:52.535Z,6.90
2023-12-20T23:28:41.650Z,6.90
2023-12-20T23:31:29.786Z,6.69
2023-12-20T23:34:17.723Z,6.68
2023-12-20T23:37:06.200Z,6.85
2023-12-20T23:39:54.184Z,6.87
2023-12-20T23:42:41.870Z,6.92
2023-12-20T23:45:30.054Z,6.88
2023-12-20T23:48:17.943Z,6.87
2023-12-20T23:51:05.733Z,6.90
2023-12-20T23:53:53.705Z,7.03
2023-12-20T23:56:41.306Z,7.18
2023-12-20T23:59:30.148Z,7.21
